Loma, Montana
Current Conditions -  °F | °C
As of 1:56 AM on Saturday 22 Nov 2014 (Local Time) from KGFA Reporting Station
Broken Clouds Broken Clouds  
Wind Chill: 36°   Ceiling: 20000
Heat Index: 44°   Visibility: 10mi
Dew Point: 29°   Wind: 18mph
Humidity: 55%   Direction: 220°SW
Pressure: 29.36"   Gusts: 26mph
Location:  47.93°N, 110.49°W
Report Text: KGFA 220856Z AUTO 22016G23KT 10SM FEW130 FEW170 BKN200 07/M02 A2936 RMK AO2 PK WND 21026/22 SLP954 T00681016 57041
Loading
Personal Weather Stations






























Interactive Weather Map New forecast layout! Learn more

10-Day Weather Forecast

Advertisements
Track Severe Weather on mobile